Time;durP1;ratioP1;P1;durP2;ratioP2;P2;SDS_P1;SDS_P2;PMS_P1;PMS_P2;Temp;Humidity;BMP_temperature;BMP_pressure;BME280_temperature;BME280_humidity;BME280_pressure;Samples;Min_cycle;Max_cycle;Signal;HPM_P1;HPM_P2
2024/04/21 00:01:49;;;;;;;3.1;1.6;;;;;;;4.8;85.38;98533.333333333;;;;
2024/04/21 00:12:49;;;;;;;4.1;2;;;;;;;4.7;84.7;98538.333333333;;;;
2024/04/21 00:23:49;;;;;;;4.1;2;;;;;;;4.66;86.38;98538.333333333;;;;
2024/04/21 00:33:49;;;;;;;4.1;2;;;;;;;4.68;86.39;98545;;;;
2024/04/21 00:43:49;;;;;;;4.4;2;;;;;;;4.64;85.63;98550;;;;
2024/04/21 00:53:49;;;;;;;4.4;2;;;;;;;4.6;86.01;98555;;;;
2024/04/21 01:04:49;;;;;;;4.3;2.3;;;;;;;4.42;86.19;98560;;;;
2024/04/21 01:14:49;;;;;;;4.3;2.3;;;;;;;4.43;86.46;98563.333333333;;;;
2024/04/21 01:25:49;;;;;;;4.3;2.3;;;;;;;4.19;87.13;98560;;;;
2024/04/21 01:36:49;;;;;;;3.8;1.9;;;;;;;4.3;87.51;98566.666666667;;;;
2024/04/21 01:46:49;;;;;;;3.8;1.9;;;;;;;4.32;87.59;98568.333333333;;;;
2024/04/21 01:56:49;;;;;;;3.8;1.9;;;;;;;4.33;87.3;98570;;;;
2024/04/21 02:07:50;;;;;;;4.1;2.4;;;;;;;4.22;87.16;98568.333333333;;;;
2024/04/21 02:18:49;;;;;;;4.1;2.4;;;;;;;4.11;87.51;98573.333333333;;;;
2024/04/21 02:29:49;;;;;;;4.1;2.4;;;;;;;4.14;87.4;98576.666666667;;;;
2024/04/21 02:39:49;;;;;;;4.5;2.6;;;;;;;4.12;86.69;98576.666666667;;;;
2024/04/21 02:50:49;;;;;;;4.5;2.6;;;;;;;3.87;86.27;98580;;;;
2024/04/21 03:00:49;;;;;;;4.5;2.6;;;;;;;3.53;87.19;98581.666666667;;;;
2024/04/21 03:10:49;;;;;;;3.8;2.3;;;;;;;3.58;87.33;98588.333333333;;;;
2024/04/21 03:20:49;;;;;;;3.8;2.3;;;;;;;3.31;87.33;98586.666666667;;;;
2024/04/21 03:31:49;;;;;;;3.8;2.3;;;;;;;3.36;87.42;98593.333333333;;;;
2024/04/21 03:41:49;;;;;;;6.6;3;;;;;;;3.06;87.52;98598.333333333;;;;
2024/04/21 03:51:49;;;;;;;6.6;3;;;;;;;2.98;88.26;98598.333333333;;;;
2024/04/21 04:02:49;;;;;;;6.6;3;;;;;;;2.81;88.14;98601.666666667;;;;
2024/04/21 04:12:49;;;;;;;4.9;2.7;;;;;;;2.79;88.11;98601.666666667;;;;
2024/04/21 04:23:49;;;;;;;4.9;2.7;;;;;;;2.84;88.15;98606.666666667;;;;
2024/04/21 04:34:49;;;;;;;7;3.8;;;;;;;2.76;88.09;98618.333333333;;;;
2024/04/21 04:45:49;;;;;;;7;3.8;;;;;;;2.88;88.31;98626.666666667;;;;
2024/04/21 04:56:49;;;;;;;7;3.8;;;;;;;2.85;88.6;98628.333333333;;;;
2024/04/21 05:06:49;;;;;;;9.4;5.2;;;;;;;3.02;88.9;98631.666666667;;;;
2024/04/21 05:17:49;;;;;;;9.4;5.2;;;;;;;3.23;88.85;98638.333333333;;;;
2024/04/21 05:27:49;;;;;;;9.4;5.2;;;;;;;3.24;88.44;98645;;;;
2024/04/21 05:37:49;;;;;;;8.1;4.9;;;;;;;3.26;88.43;98646.666666667;;;;
2024/04/21 05:48:49;;;;;;;8.1;4.9;;;;;;;3.19;87.63;98656.666666667;;;;
2024/04/21 05:58:49;;;;;;;8.1;4.9;;;;;;;3.46;86.85;98653.333333333;;;;
2024/04/21 06:09:49;;;;;;;7.9;4.4;;;;;;;3.38;86.49;98668.333333333;;;;
2024/04/21 06:19:49;;;;;;;7.9;4.4;;;;;;;3.67;86.63;98668.333333333;;;;
2024/04/21 06:30:49;;;;;;;7.9;4.4;;;;;;;3.71;86.13;98673.333333333;;;;
2024/04/21 06:41:49;;;;;;;7.6;3.9;;;;;;;4.08;85.37;98670;;;;
2024/04/21 06:52:49;;;;;;;7.6;3.9;;;;;;;4.16;84.95;98675;;;;
2024/04/21 07:02:49;;;;;;;7.6;3.9;;;;;;;4.48;84.57;98683.333333333;;;;
2024/04/21 07:13:49;;;;;;;10.5;5;;;;;;;4.51;83.54;98683.333333333;;;;
2024/04/21 07:23:49;;;;;;;10.5;5;;;;;;;4.6;83.16;98688.333333333;;;;
2024/04/21 07:34:49;;;;;;;9.4;5.3;;;;;;;4.68;82.78;98690;;;;
2024/04/21 07:45:50;;;;;;;9.4;5.3;;;;;;;4.67;82.04;98698.333333333;;;;
2024/04/21 07:56:49;;;;;;;9.4;5.3;;;;;;;4.51;83.34;98703.333333333;;;;
2024/04/21 08:06:49;;;;;;;8.7;4.8;;;;;;;4.67;84.01;98696.666666667;;;;
2024/04/21 08:16:49;;;;;;;8.7;4.8;;;;;;;4.84;83.22;98698.333333333;;;;
2024/04/21 08:27:49;;;;;;;8.7;4.8;;;;;;;5.33;82.57;98716.666666667;;;;
2024/04/21 08:38:49;;;;;;;7;4;;;;;;;5.38;81.14;98720;;;;
2024/04/21 08:48:49;;;;;;;7;4;;;;;;;5.54;81.51;98726.666666667;;;;
2024/04/21 08:59:49;;;;;;;7;4;;;;;;;5.69;79.1;98725;;;;
2024/04/21 09:09:49;;;;;;;;;;;;;;;6.04;80.27;98725;;;;
2024/04/21 09:19:49;;;;;;;9.1;4.6;;;;;;;6.12;79.59;98720;;;;
2024/04/21 09:30:49;;;;;;;9.1;4.6;;;;;;;6.49;77.84;98716.666666667;;;;
2024/04/21 09:41:51;;;;;;;9.1;4.6;;;;;;;6.92;77.74;98716.666666667;;;;
2024/04/21 09:52:50;;;;;;;6.2;3.2;;;;;;;7.11;77.31;98718.333333333;;;;
2024/04/21 10:03:49;;;;;;;6.2;3.2;;;;;;;7.75;73.68;98718.333333333;;;;
2024/04/21 10:13:49;;;;;;;6.2;3.3;;;;;;;7.19;75.54;98718.333333333;;;;
2024/04/21 10:23:49;;;;;;;6.2;3.3;;;;;;;6.82;76.07;98711.666666667;;;;
2024/04/21 10:34:49;;;;;;;6.2;3.3;;;;;;;6.9;76.09;98716.666666667;;;;
2024/04/21 10:45:49;;;;;;;5.6;3.3;;;;;;;6.14;78.61;98726.666666667;;;;
2024/04/21 10:56:49;;;;;;;5.6;3.3;;;;;;;6.4;77.85;98728.333333333;;;;
2024/04/21 11:07:49;;;;;;;5.6;3.3;;;;;;;5.97;79.25;98734;;;;
2024/04/21 11:17:49;;;;;;;7.1;3.4;;;;;;;6.46;78.85;98734;;;;
2024/04/21 11:27:49;;;;;;;7.1;3.4;;;;;;;6.85;77.05;98720;;;;
2024/04/21 11:38:49;;;;;;;7.1;3.4;;;;;;;7.04;76.43;98720;;;;
2024/04/21 11:49:49;;;;;;;6.7;3.7;;;;;;;6.63;76.27;98725;;;;
2024/04/21 11:59:49;;;;;;;6.7;3.7;;;;;;;6.41;78.36;98718.333333333;;;;
2024/04/21 12:10:49;;;;;;;6.7;3.7;;;;;;;6.73;79.09;98715;;;;
2024/04/21 12:21:49;;;;;;;7.9;3.7;;;;;;;6.36;79.78;98718.333333333;;;;
2024/04/21 12:31:50;;;;;;;7.9;3.7;;;;;;;6.48;79.66;98723.333333333;;;;
2024/04/21 12:41:49;;;;;;;7.9;3.7;;;;;;;6.16;79.74;98715;;;;
2024/04/21 12:51:49;;;;;;;6.2;3.1;;;;;;;6.28;79.78;98711.666666667;;;;
2024/04/21 13:02:49;;;;;;;6.2;3.1;;;;;;;6.41;79.01;98711.666666667;;;;
2024/04/21 13:12:49;;;;;;;5.5;3.4;;;;;;;6.56;79.73;98718.333333333;;;;
2024/04/21 13:22:49;;;;;;;5.5;3.4;;;;;;;6.42;79.27;98720;;;;
2024/04/21 13:33:49;;;;;;;5.5;3.4;;;;;;;6.66;78.11;98725;;;;
2024/04/21 13:44:49;;;;;;;5.7;3.6;;;;;;;6.28;78.87;98731.666666667;;;;
2024/04/21 13:55:50;;;;;;;5.7;3.6;;;;;;;6.01;78.22;98730;;;;
2024/04/21 14:06:49;;;;;;;5.7;3.6;;;;;;;5.9;79.11;98728.333333333;;;;
2024/04/21 14:16:49;;;;;;;5.2;2.5;;;;;;;5.99;80.74;98728.333333333;;;;
2024/04/21 14:26:49;;;;;;;5.2;2.5;;;;;;;6.23;80.36;98730;;;;
2024/04/21 14:36:49;;;;;;;5.2;2.5;;;;;;;6.01;80.29;98728.333333333;;;;
2024/04/21 14:47:54;;;;;;;5.6;3.1;;;;;;;6.09;79.93;98726.666666667;;;;
2024/04/21 14:58:49;;;;;;;5.6;3.1;;;;;;;5.85;80.12;98723.333333333;;;;
2024/04/21 15:08:51;;;;;;;5.6;3.1;;;;;;;5.77;80.31;98718.333333333;;;;
2024/04/21 15:19:49;;;;;;;6.2;3.6;;;;;;;5.67;80.46;98718.333333333;;;;
2024/04/21 15:29:49;;;;;;;6.2;3.6;;;;;;;5.48;81.08;98718.333333333;;;;
2024/04/21 15:40:50;;;;;;;6.2;3.6;;;;;;;5.43;80.92;98723.333333333;;;;
2024/04/21 15:50:50;;;;;;;6;3.4;;;;;;;5.34;81.92;98716.666666667;;;;
2024/04/21 16:00:51;;;;;;;6;3.4;;;;;;;5.43;82.2;98725;;;;
2024/04/21 16:10:49;;;;;;;6;3.4;;;;;;;5.5;81.42;98731.666666667;;;;
2024/04/21 16:20:49;;;;;;;8;3.7;;;;;;;5.49;81.6;98740;;;;
2024/04/21 16:30:49;;;;;;;8;3.7;;;;;;;5.46;81.77;98748.333333333;;;;
2024/04/21 16:41:49;;;;;;;8;3.7;;;;;;;5.41;82.12;98748.333333333;;;;
2024/04/21 16:51:50;;;;;;;9.5;4.8;;;;;;;5.31;83.18;98751.666666667;;;;
2024/04/21 17:02:49;;;;;;;9.5;4.8;;;;;;;5.17;83.93;98768.333333333;;;;
2024/04/21 17:12:49;;;;;;;10.5;5;;;;;;;5.19;83.72;98775;;;;
2024/04/21 17:22:49;;;;;;;10.5;5;;;;;;;5.04;84.62;98785;;;;
2024/04/21 17:32:49;;;;;;;10.5;5;;;;;;;4.98;85.22;98786.666666667;;;;
2024/04/21 17:43:49;;;;;;;8;4.6;;;;;;;4.73;86.44;98795;;;;
2024/04/21 17:54:54;;;;;;;8;4.6;;;;;;;4.65;86.42;98810;;;;
2024/04/21 18:05:49;;;;;;;8;4.6;;;;;;;4.86;86.44;98811.666666667;;;;
2024/04/21 18:15:49;;;;;;;11.7;6.7;;;;;;;4.7;87.32;98828.333333333;;;;
2024/04/21 18:26:49;;;;;;;11.7;6.7;;;;;;;4.54;87.07;98838.333333333;;;;
2024/04/21 18:36:49;;;;;;;11.7;6.7;;;;;;;4.45;87.61;98836.666666667;;;;
2024/04/21 18:47:49;;;;;;;13.6;6.8;;;;;;;4.52;87.49;98843.333333333;;;;
2024/04/21 18:58:49;;;;;;;13.6;6.8;;;;;;;4.47;87.72;98845;;;;
2024/04/21 19:09:51;;;;;;;13.6;6.8;;;;;;;4.65;87.74;98843.333333333;;;;
2024/04/21 19:19:49;;;;;;;16.1;8.8;;;;;;;4.73;87.69;98841.666666667;;;;
2024/04/21 19:29:49;;;;;;;16.1;8.8;;;;;;;4.57;87.84;98840;;;;
2024/04/21 19:39:49;;;;;;;16.1;8.8;;;;;;;4.65;87.77;98843.333333333;;;;
2024/04/21 19:49:52;;;;;;;14.8;9;;;;;;;4.61;87.4;98841.666666667;;;;
2024/04/21 19:59:49;;;;;;;14.8;9;;;;;;;4.71;87.62;98836.666666667;;;;
2024/04/21 20:10:49;;;;;;;14.8;9;;;;;;;4.62;87.57;98836.666666667;;;;
2024/04/21 20:20:49;;;;;;;15.6;8.3;;;;;;;4.7;87.8;98836.666666667;;;;
2024/04/21 20:30:50;;;;;;;15.6;8.3;;;;;;;4.68;87.61;98835;;;;
2024/04/21 20:41:49;;;;;;;20;11.7;;;;;;;4.87;87.84;98835;;;;
2024/04/21 20:51:50;;;;;;;20;11.7;;;;;;;4.83;87.51;98830;;;;
2024/04/21 21:01:50;;;;;;;20;11.7;;;;;;;4.86;87.59;98838.333333333;;;;
2024/04/21 21:11:50;;;;;;;22.4;12.1;;;;;;;4.98;87.44;98841.666666667;;;;
2024/04/21 21:21:49;;;;;;;22.4;12.1;;;;;;;5.07;87.01;98833.333333333;;;;
2024/04/21 21:31:50;;;;;;;22.4;12.1;;;;;;;5.18;87.22;98825;;;;
2024/04/21 21:42:49;;;;;;;24.3;13;;;;;;;5.24;87.24;98821.666666667;;;;
2024/04/21 21:52:49;;;;;;;24.3;13;;;;;;;5.3;86.83;98816.666666667;;;;
2024/04/21 22:02:49;;;;;;;24.3;13;;;;;;;5.14;86.99;98816.666666667;;;;
2024/04/21 22:13:49;;;;;;;22;12.6;;;;;;;5.15;87.38;98811.666666667;;;;
2024/04/21 22:23:50;;;;;;;22;12.6;;;;;;;5.12;87.79;98813.333333333;;;;
2024/04/21 22:33:50;;;;;;;22;12.6;;;;;;;5.12;87.68;98808.333333333;;;;
2024/04/21 22:44:50;;;;;;;22.8;12.4;;;;;;;5.28;88.08;98801.666666667;;;;
2024/04/21 22:55:50;;;;;;;22.8;12.4;;;;;;;5.33;86.85;98805;;;;
2024/04/21 23:06:50;;;;;;;22.8;12.4;;;;;;;5.3;85.89;98805;;;;
2024/04/21 23:17:50;;;;;;;19.2;9.3;;;;;;;5.12;85.15;98801.666666667;;;;
2024/04/21 23:28:50;;;;;;;19.2;9.3;;;;;;;5.08;85.06;98808.333333333;;;;
2024/04/21 23:38:50;;;;;;;19.2;9.3;;;;;;;4.97;85.13;98800;;;;
2024/04/21 23:48:50;;;;;;;8.7;4.7;;;;;;;4.96;85.09;98806.666666667;;;;
2024/04/21 23:59:50;;;;;;;8.7;4.7;;;;;;;5;84.44;98808.333333333;;;;
